Cruise Smeralda — IBNQ — position and weather

sailwx.info

Track history (hours):
 
Tides and Currents Weather Stations Pressure Air Temp Water Temp Dewpoint Dewpoint Depression Visibility Wind Speed Wind Dir Waves Ship Positions

Cruise Smeralda

Last reported at 2017-Dec-15 23:26 UTC. Time now 2017-Dec-15 23:52 UTC.
Position N 44°19' E 008°30'.

Length 200 m; draft 6.8 m.

Type: Ship (hazmat cat D). MMSI: 247343200.

Date/timePositionNaut miles runAvg speedWind from/ knotsBaromVisibWave heightAir tempDewpointWater temp
2017-Dec-15 23:26N 44°19' E 008°30'0 0.0
2017-Dec-15 22:56N 44°19' E 008°30'0 0.0
2017-Dec-15 22:29N 44°19' E 008°30'0 0.0
2017-Dec-15 21:59N 44°19' E 008°30'0 0.0
2017-Dec-15 21:29N 44°19' E 008°30'0 0.0
2017-Dec-15 20:59N 44°19' E 008°30'0 0.0
2017-Dec-15 20:29N 44°19' E 008°30'0 0.0
2017-Dec-15 19:59N 44°19' E 008°30'0 0.0
2017-Dec-15 19:29N 44°19' E 008°30'0 0.0
2017-Dec-15 18:59N 44°19' E 008°30'0 0.0
2017-Dec-15 18:29N 44°19' E 008°30'0 0.3
2017-Dec-15 18:01N 44°19' E 008°30'5 9.4
2017-Dec-15 17:30N 44°14' E 008°32'1019.5
2017-Dec-15 17:00N 44°06' E 008°25'1019.5
2017-Dec-15 16:29N 43°57' E 008°17'4219.7
2017-Dec-15 14:21N 43°28' E 007°36'720.1
2017-Dec-15 13:59N 43°24' E 007°28'1020.0
2017-Dec-15 13:30N 43°18' E 007°17'1020.1
2017-Dec-15 13:00N 43°11' E 007°07'24719.8
2017-Dec-15 00:33N 41°18' E 002°10'1 0.1
2017-Dec-14 17:20N 41°19' E 002°10'412.8
2017-Dec-14 16:59N 41°19' E 002°16'23719.9
2017-Dec-14 05:06N 43°09' E 006°59'220.8
2017-Dec-14 05:00N 43°10' E 007°02'1220.8
2017-Dec-14 04:27N 43°17' E 007°14'920.7
2017-Dec-14 04:00N 43°23' E 007°24'1120.4
2017-Dec-14 03:29N 43°30' E 007°35'4119.5
2017-Dec-14 01:22N 43°57' E 008°18'821.5
2017-Dec-14 01:00N 44°03' E 008°24'1121.9
2017-Dec-14 00:30N 44°13' E 008°32'611.7
2017-Dec-14 00:00N 44°19' E 008°30'0 0.0
2017-Dec-13 23:30N 44°19' E 008°30'0 0.0
2017-Dec-13 23:00N 44°19' E 008°30'0 0.0
2017-Dec-13 22:30N 44°19' E 008°30'0 0.0
2017-Dec-13 22:00N 44°19' E 008°30'0 0.0
2017-Dec-13 21:30N 44°19' E 008°30'0 0.0
2017-Dec-13 21:00N 44°19' E 008°30'0 0.0
2017-Dec-13 20:30N 44°19' E 008°30'0 0.0
2017-Dec-13 20:00N 44°19' E 008°30'0 0.0
2017-Dec-13 19:30N 44°19' E 008°30'0 0.0
2017-Dec-13 19:00N 44°19' E 008°30'0 0.0
2017-Dec-13 18:30N 44°19' E 008°30'0 0.0
2017-Dec-13 18:00N 44°19' E 008°30'0 0.8
2017-Dec-13 17:30N 44°19' E 008°30'3 6.2
2017-Dec-13 17:00N 44°16' E 008°32'917.3
2017-Dec-13 16:30N 44°08' E 008°27'1419.1
2017-Dec-13 15:46N 43°56' E 008°17'3219.0
2017-Dec-13 14:06N 43°35' E 007°45'1019.6
2017-Dec-13 13:37N 43°28' E 007°35'519.3
2017-Dec-13 13:20N 43°25' E 007°29'719.3
2017-Dec-13 13:00N 43°21' E 007°23'919.3
2017-Dec-13 12:30N 43°14' E 007°13'1019.3
2017-Dec-13 12:00N 43°08' E 007°03'24319.2
2017-Dec-12 23:20N 41°18' E 002°10'0 0.1
2017-Dec-12 17:16N 41°18' E 002°10'817.0
2017-Dec-12 16:46N 41°11' E 002°06'621.8
2017-Dec-12 16:31N 41°05' E 002°03'1121.5
2017-Dec-12 16:00N 40°55' E 001°58'19120.9
2017-Dec-12 06:53N 38°07' W 000°00'1022.4
2017-Dec-12 06:27N 37°59' W 000°07'1022.1
2017-Dec-12 05:59N 37°50' W 000°14'1022.0
2017-Dec-12 05:31N 37°42' W 000°21'1122.0
2017-Dec-12 05:00N 37°33' W 000°30'1121.8
2017-Dec-12 04:29N 37°25' W 000°40'1121.6
2017-Dec-12 03:57N 37°18' W 000°51'1121.6
2017-Dec-12 03:26N 37°10' W 001°02'17620.8
2017-Dec-11 19:00N 36°04' W 004°25'1521.1
2017-Dec-11 18:18N 36°02' W 004°43'1321.7
2017-Dec-11 17:42N 36°00' W 004°59'201 6.7
2017-Dec-10 11:43N 37°12' W 001°04'421.3
2017-Dec-10 11:30N 37°15' W 001°00'1121.3
2017-Dec-10 11:00N 37°22' W 000°50'1121.2
2017-Dec-10 10:30N 37°29' W 000°40'1021.0
2017-Dec-10 10:00N 37°37' W 000°31'1020.6
2017-Dec-10 09:30N 37°45' W 000°24'21420.4
2017-Dec-09 23:00N 40°51' E 001°52'1221.3
2017-Dec-09 22:27N 41°01' E 001°60'921.0
2017-Dec-09 22:00N 41°10' E 002°06'10 2.1
2017-Dec-09 17:25N 41°19' E 002°10'24218.8
2017-Dec-09 04:32N 43°09' E 007°02'120.5
2017-Dec-09 04:30N 43°09' E 007°02'1019.9
2017-Dec-09 04:00N 43°16' E 007°13'1020.0
2017-Dec-09 03:30N 43°22' E 007°24'4720.5
2017-Dec-09 01:10N 43°53' E 008°14'420.6
2017-Dec-09 00:58N 43°57' E 008°17'1021.0
2017-Dec-09 00:30N 44°05' E 008°25'1020.9
2017-Dec-09 00:00N 44°14' E 008°32'510.4
2017-Dec-08 23:29N 44°19' E 008°30'0 0.0
2017-Dec-08 22:56N 44°19' E 008°30'0 0.0
2017-Dec-08 22:26N 44°19' E 008°30'0 0.0
2017-Dec-08 21:59N 44°19' E 008°30'0 0.0
2017-Dec-08 21:26N 44°19' E 008°30'0 0.0
2017-Dec-08 20:56N 44°19' E 008°30'0 0.0
2017-Dec-08 20:29N 44°19' E 008°30'0 0.0
2017-Dec-08 19:59N 44°19' E 008°30'0 0.0
2017-Dec-08 19:29N 44°19' E 008°30'0 0.0
2017-Dec-08 18:59N 44°19' E 008°30'0 0.0
2017-Dec-08 18:29N 44°19' E 008°30'0 0.0
2017-Dec-08 17:56N 44°19' E 008°30'0 0.0
2017-Dec-08 17:29N 44°19' E 008°30'0 0.0
2017-Dec-08 16:59N 44°19' E 008°30'0 0.0
2017-Dec-08 16:26N 44°19' E 008°30'0 0.0
2017-Dec-08 15:59N 44°19' E 008°30'0 0.0
2017-Dec-08 15:29N 44°19' E 008°30'0 0.0
2017-Dec-08 14:59N 44°19' E 008°30'0 0.0
2017-Dec-08 14:29N 44°19' E 008°30'0 0.0
2017-Dec-08 13:59N 44°19' E 008°30'0 0.0
2017-Dec-08 13:29N 44°19' E 008°30'0 0.0
2017-Dec-08 12:59N 44°19' E 008°30'0 0.0
2017-Dec-08 12:29N 44°19' E 008°30'0 0.3
2017-Dec-08 11:59N 44°19' E 008°30'0 0.0
2017-Dec-08 11:29N 44°19' E 008°30'0 0.0
2017-Dec-08 10:59N 44°19' E 008°30'0 0.0
2017-Dec-08 10:29N 44°19' E 008°30'0 0.0
2017-Dec-08 09:59N 44°19' E 008°30'0 0.0
2017-Dec-08 09:29N 44°19' E 008°30'0 0.0
2017-Dec-08 08:59N 44°19' E 008°30'0 0.0
2017-Dec-08 08:29N 44°19' E 008°30'0 0.0
2017-Dec-08 07:59N 44°19' E 008°30'0 0.0
2017-Dec-08 07:26N 44°19' E 008°30'0 0.0
2017-Dec-08 06:56N 44°19' E 008°30'0 0.0
2017-Dec-08 06:26N 44°19' E 008°30'0 0.0
2017-Dec-08 05:56N 44°19' E 008°30'0 0.0
2017-Dec-08 05:29N 44°19' E 008°30'0 0.0
2017-Dec-08 04:59N 44°19' E 008°30'0 0.0
2017-Dec-08 04:29N 44°19' E 008°30'0 0.0
2017-Dec-08 03:59N 44°19' E 008°30'0 0.0
2017-Dec-08 03:26N 44°19' E 008°30'0 0.0
2017-Dec-08 02:59N 44°19' E 008°30'0 0.0
2017-Dec-08 02:26N 44°19' E 008°30'0 0.0
2017-Dec-08 01:56N 44°19' E 008°30'0 0.0
2017-Dec-08 01:29N 44°19' E 008°30'0 0.0
2017-Dec-08 00:59N 44°19' E 008°30'0 0.0
2017-Dec-08 00:29N 44°19' E 008°30'0 0.0
2017-Dec-07 23:56N 44°19' E 008°30'0 0.0
2017-Dec-07 23:29N 44°19' E 008°30'0 0.0
2017-Dec-07 22:59N 44°19' E 008°30'0 0.0
2017-Dec-07 22:29N 44°19' E 008°30'0 0.0
2017-Dec-07 21:59N 44°19' E 008°30'0 0.0
2017-Dec-07 21:29N 44°19' E 008°30'0 0.0
2017-Dec-07 20:59N 44°19' E 008°30'0 0.0
2017-Dec-07 20:26N 44°19' E 008°30'0 0.0
2017-Dec-07 19:59N 44°19' E 008°30'0 0.0
2017-Dec-07 19:29N 44°19' E 008°30'0 0.0
2017-Dec-07 18:59N 44°19' E 008°30'0 0.0
2017-Dec-07 18:29N 44°19' E 008°30'0 0.0
2017-Dec-07 17:59N 44°19' E 008°30'0 0.0
2017-Dec-07 17:26N 44°19' E 008°30'0 0.0
2017-Dec-07 16:56N 44°19' E 008°30'0 0.0
2017-Dec-07 16:29N 44°19' E 008°30'0 0.0
2017-Dec-07 15:56N 44°19' E 008°30'0 0.0
2017-Dec-07 15:26N 44°19' E 008°30'0 0.0
2017-Dec-07 14:56N 44°19' E 008°30'0 0.0
2017-Dec-07 14:26N 44°19' E 008°30'0 0.0
2017-Dec-07 13:56N 44°19' E 008°30'0 0.0
2017-Dec-07 13:29N 44°19' E 008°30'0 0.0
2017-Dec-07 12:56N 44°19' E 008°30'0 0.0
2017-Dec-07 12:26N 44°19' E 008°30'0 0.0
2017-Dec-07 11:56N 44°19' E 008°30'0 0.0
2017-Dec-07 11:29N 44°19' E 008°30'0 0.0
2017-Dec-07 10:56N 44°19' E 008°30'0 0.0
2017-Dec-07 10:29N 44°19' E 008°30'0 0.0
2017-Dec-07 09:59N 44°19' E 008°30'0 0.0
2017-Dec-07 09:29N 44°19' E 008°30'0 0.0
2017-Dec-07 08:59N 44°19' E 008°30'0 0.0
2017-Dec-07 08:26N 44°19' E 008°30'0 0.0
2017-Dec-07 07:59N 44°19' E 008°30'0 0.0
2017-Dec-07 07:29N 44°19' E 008°30'0 0.0
2017-Dec-07 06:59N 44°19' E 008°30'0 0.0
2017-Dec-07 06:29N 44°19' E 008°30'0 0.0
2017-Dec-07 05:59N 44°19' E 008°30'0 0.0
2017-Dec-07 05:26N 44°19' E 008°30'0 0.0
2017-Dec-07 04:56N 44°19' E 008°30'0 0.0
2017-Dec-07 04:29N 44°19' E 008°30'0 0.0
2017-Dec-07 03:59N 44°19' E 008°30'0 0.0
2017-Dec-07 03:29N 44°19' E 008°30'0 0.0
2017-Dec-07 02:59N 44°19' E 008°30'0 0.0
2017-Dec-07 02:26N 44°19' E 008°30'0 0.0
2017-Dec-07 01:59N 44°19' E 008°30'0 0.0
2017-Dec-07 01:26N 44°19' E 008°30'0 0.0
2017-Dec-07 00:59N 44°19' E 008°30'0 0.0
2017-Dec-07 00:26N 44°19' E 008°30'0 0.0
2017-Dec-06 23:59N 44°19' E 008°30'0 0.0
2017-Dec-06 23:26N 44°19' E 008°30'0 0.0
2017-Dec-06 22:56N 44°19' E 008°30'0 0.3
2017-Dec-06 22:26N 44°19' E 008°30'0 0.0
2017-Dec-06 21:56N 44°19' E 008°30'0 0.0
2017-Dec-06 21:26N 44°19' E 008°30'0 0.0
2017-Dec-06 20:59N 44°19' E 008°30'  
Track history (hours):
 
Tides and Currents Weather Stations Pressure Air Temp Water Temp Dewpoint Dewpoint Depression Visibility Wind Speed Wind Dir Waves Ship Positions

Cruise Smeralda

Last reported at 2017-Dec-15 23:26 UTC. Time now 2017-Dec-15 23:52 UTC.
Position N 44°19' E 008°30'.

Length 200 m; draft 6.8 m.

Type: Ship (hazmat cat D). MMSI: 247343200.

Date/timePositionNaut miles runAvg speedWind from/ knotsBaromVisibWave heightAir tempDewpointWater temp
2017-Dec-15 23:26N 44°19' E 008°30'0 0.0
2017-Dec-15 22:56N 44°19' E 008°30'0 0.0
2017-Dec-15 22:29N 44°19' E 008°30'0 0.0
2017-Dec-15 21:59N 44°19' E 008°30'0 0.0
2017-Dec-15 21:29N 44°19' E 008°30'0 0.0
2017-Dec-15 20:59N 44°19' E 008°30'0 0.0
2017-Dec-15 20:29N 44°19' E 008°30'0 0.0
2017-Dec-15 19:59N 44°19' E 008°30'0 0.0
2017-Dec-15 19:29N 44°19' E 008°30'0 0.0
2017-Dec-15 18:59N 44°19' E 008°30'0 0.0
2017-Dec-15 18:29N 44°19' E 008°30'0 0.3
2017-Dec-15 18:01N 44°19' E 008°30'5 9.4
2017-Dec-15 17:30N 44°14' E 008°32'1019.5
2017-Dec-15 17:00N 44°06' E 008°25'1019.5
2017-Dec-15 16:29N 43°57' E 008°17'4219.7
2017-Dec-15 14:21N 43°28' E 007°36'720.1
2017-Dec-15 13:59N 43°24' E 007°28'1020.0
2017-Dec-15 13:30N 43°18' E 007°17'1020.1
2017-Dec-15 13:00N 43°11' E 007°07'24719.8
2017-Dec-15 00:33N 41°18' E 002°10'1 0.1
2017-Dec-14 17:20N 41°19' E 002°10'412.8
2017-Dec-14 16:59N 41°19' E 002°16'23719.9
2017-Dec-14 05:06N 43°09' E 006°59'220.8
2017-Dec-14 05:00N 43°10' E 007°02'1220.8
2017-Dec-14 04:27N 43°17' E 007°14'920.7
2017-Dec-14 04:00N 43°23' E 007°24'1120.4
2017-Dec-14 03:29N 43°30' E 007°35'4119.5
2017-Dec-14 01:22N 43°57' E 008°18'821.5
2017-Dec-14 01:00N 44°03' E 008°24'1121.9
2017-Dec-14 00:30N 44°13' E 008°32'611.7
2017-Dec-14 00:00N 44°19' E 008°30'0 0.0
2017-Dec-13 23:30N 44°19' E 008°30'0 0.0
2017-Dec-13 23:00N 44°19' E 008°30'0 0.0
2017-Dec-13 22:30N 44°19' E 008°30'0 0.0
2017-Dec-13 22:00N 44°19' E 008°30'0 0.0
2017-Dec-13 21:30N 44°19' E 008°30'0 0.0
2017-Dec-13 21:00N 44°19' E 008°30'0 0.0
2017-Dec-13 20:30N 44°19' E 008°30'0 0.0
2017-Dec-13 20:00N 44°19' E 008°30'0 0.0
2017-Dec-13 19:30N 44°19' E 008°30'0 0.0
2017-Dec-13 19:00N 44°19' E 008°30'0 0.0
2017-Dec-13 18:30N 44°19' E 008°30'0 0.0
2017-Dec-13 18:00N 44°19' E 008°30'0 0.8
2017-Dec-13 17:30N 44°19' E 008°30'3 6.2
2017-Dec-13 17:00N 44°16' E 008°32'917.3
2017-Dec-13 16:30N 44°08' E 008°27'1419.1
2017-Dec-13 15:46N 43°56' E 008°17'3219.0
2017-Dec-13 14:06N 43°35' E 007°45'1019.6
2017-Dec-13 13:37N 43°28' E 007°35'519.3
2017-Dec-13 13:20N 43°25' E 007°29'719.3
2017-Dec-13 13:00N 43°21' E 007°23'919.3
2017-Dec-13 12:30N 43°14' E 007°13'1019.3
2017-Dec-13 12:00N 43°08' E 007°03'24319.2
2017-Dec-12 23:20N 41°18' E 002°10'0 0.1
2017-Dec-12 17:16N 41°18' E 002°10'817.0
2017-Dec-12 16:46N 41°11' E 002°06'621.8
2017-Dec-12 16:31N 41°05' E 002°03'1121.5
2017-Dec-12 16:00N 40°55' E 001°58'19120.9
2017-Dec-12 06:53N 38°07' W 000°00'1022.4
2017-Dec-12 06:27N 37°59' W 000°07'1022.1
2017-Dec-12 05:59N 37°50' W 000°14'1022.0
2017-Dec-12 05:31N 37°42' W 000°21'1122.0
2017-Dec-12 05:00N 37°33' W 000°30'1121.8
2017-Dec-12 04:29N 37°25' W 000°40'1121.6
2017-Dec-12 03:57N 37°18' W 000°51'1121.6
2017-Dec-12 03:26N 37°10' W 001°02'17620.8
2017-Dec-11 19:00N 36°04' W 004°25'1521.1
2017-Dec-11 18:18N 36°02' W 004°43'1321.7
2017-Dec-11 17:42N 36°00' W 004°59'201 6.7
2017-Dec-10 11:43N 37°12' W 001°04'421.3
2017-Dec-10 11:30N 37°15' W 001°00'1121.3
2017-Dec-10 11:00N 37°22' W 000°50'1121.2
2017-Dec-10 10:30N 37°29' W 000°40'1021.0
2017-Dec-10 10:00N 37°37' W 000°31'1020.6
2017-Dec-10 09:30N 37°45' W 000°24'21420.4
2017-Dec-09 23:00N 40°51' E 001°52'1221.3
2017-Dec-09 22:27N 41°01' E 001°60'921.0
2017-Dec-09 22:00N 41°10' E 002°06'10 2.1
2017-Dec-09 17:25N 41°19' E 002°10'24218.8
2017-Dec-09 04:32N 43°09' E 007°02'120.5
2017-Dec-09 04:30N 43°09' E 007°02'1019.9
2017-Dec-09 04:00N 43°16' E 007°13'1020.0
2017-Dec-09 03:30N 43°22' E 007°24'4720.5
2017-Dec-09 01:10N 43°53' E 008°14'420.6
2017-Dec-09 00:58N 43°57' E 008°17'1021.0
2017-Dec-09 00:30N 44°05' E 008°25'1020.9
2017-Dec-09 00:00N 44°14' E 008°32'510.4
2017-Dec-08 23:29N 44°19' E 008°30'0 0.0
2017-Dec-08 22:56N 44°19' E 008°30'0 0.0
2017-Dec-08 22:26N 44°19' E 008°30'0 0.0
2017-Dec-08 21:59N 44°19' E 008°30'0 0.0
2017-Dec-08 21:26N 44°19' E 008°30'0 0.0
2017-Dec-08 20:56N 44°19' E 008°30'0 0.0
2017-Dec-08 20:29N 44°19' E 008°30'0 0.0
2017-Dec-08 19:59N 44°19' E 008°30'0 0.0
2017-Dec-08 19:29N 44°19' E 008°30'0 0.0
2017-Dec-08 18:59N 44°19' E 008°30'0 0.0
2017-Dec-08 18:29N 44°19' E 008°30'0 0.0
2017-Dec-08 17:56N 44°19' E 008°30'0 0.0
2017-Dec-08 17:29N 44°19' E 008°30'0 0.0
2017-Dec-08 16:59N 44°19' E 008°30'0 0.0
2017-Dec-08 16:26N 44°19' E 008°30'0 0.0
2017-Dec-08 15:59N 44°19' E 008°30'0 0.0
2017-Dec-08 15:29N 44°19' E 008°30'0 0.0
2017-Dec-08 14:59N 44°19' E 008°30'0 0.0
2017-Dec-08 14:29N 44°19' E 008°30'0 0.0
2017-Dec-08 13:59N 44°19' E 008°30'0 0.0
2017-Dec-08 13:29N 44°19' E 008°30'0 0.0
2017-Dec-08 12:59N 44°19' E 008°30'0 0.0
2017-Dec-08 12:29N 44°19' E 008°30'0 0.3
2017-Dec-08 11:59N 44°19' E 008°30'0 0.0
2017-Dec-08 11:29N 44°19' E 008°30'0 0.0
2017-Dec-08 10:59N 44°19' E 008°30'0 0.0
2017-Dec-08 10:29N 44°19' E 008°30'0 0.0
2017-Dec-08 09:59N 44°19' E 008°30'0 0.0
2017-Dec-08 09:29N 44°19' E 008°30'0 0.0
2017-Dec-08 08:59N 44°19' E 008°30'0 0.0
2017-Dec-08 08:29N 44°19' E 008°30'0 0.0
2017-Dec-08 07:59N 44°19' E 008°30'0 0.0
2017-Dec-08 07:26N 44°19' E 008°30'0 0.0
2017-Dec-08 06:56N 44°19' E 008°30'0 0.0
2017-Dec-08 06:26N 44°19' E 008°30'0 0.0
2017-Dec-08 05:56N 44°19' E 008°30'0 0.0
2017-Dec-08 05:29N 44°19' E 008°30'0 0.0
2017-Dec-08 04:59N 44°19' E 008°30'0 0.0
2017-Dec-08 04:29N 44°19' E 008°30'0 0.0
2017-Dec-08 03:59N 44°19' E 008°30'0 0.0
2017-Dec-08 03:26N 44°19' E 008°30'0 0.0
2017-Dec-08 02:59N 44°19' E 008°30'0 0.0
2017-Dec-08 02:26N 44°19' E 008°30'0 0.0
2017-Dec-08 01:56N 44°19' E 008°30'0 0.0
2017-Dec-08 01:29N 44°19' E 008°30'0 0.0
2017-Dec-08 00:59N 44°19' E 008°30'0 0.0
2017-Dec-08 00:29N 44°19' E 008°30'0 0.0
2017-Dec-07 23:56N 44°19' E 008°30'0 0.0
2017-Dec-07 23:29N 44°19' E 008°30'0 0.0
2017-Dec-07 22:59N 44°19' E 008°30'0 0.0
2017-Dec-07 22:29N 44°19' E 008°30'0 0.0
2017-Dec-07 21:59N 44°19' E 008°30'0 0.0
2017-Dec-07 21:29N 44°19' E 008°30'0 0.0
2017-Dec-07 20:59N 44°19' E 008°30'0 0.0
2017-Dec-07 20:26N 44°19' E 008°30'0 0.0
2017-Dec-07 19:59N 44°19' E 008°30'0 0.0
2017-Dec-07 19:29N 44°19' E 008°30'0 0.0
2017-Dec-07 18:59N 44°19' E 008°30'0 0.0
2017-Dec-07 18:29N 44°19' E 008°30'0 0.0
2017-Dec-07 17:59N 44°19' E 008°30'0 0.0
2017-Dec-07 17:26N 44°19' E 008°30'0 0.0
2017-Dec-07 16:56N 44°19' E 008°30'0 0.0
2017-Dec-07 16:29N 44°19' E 008°30'0 0.0
2017-Dec-07 15:56N 44°19' E 008°30'0 0.0
2017-Dec-07 15:26N 44°19' E 008°30'0 0.0
2017-Dec-07 14:56N 44°19' E 008°30'0 0.0
2017-Dec-07 14:26N 44°19' E 008°30'0 0.0
2017-Dec-07 13:56N 44°19' E 008°30'0 0.0
2017-Dec-07 13:29N 44°19' E 008°30'0 0.0
2017-Dec-07 12:56N 44°19' E 008°30'0 0.0
2017-Dec-07 12:26N 44°19' E 008°30'0 0.0
2017-Dec-07 11:56N 44°19' E 008°30'0 0.0
2017-Dec-07 11:29N 44°19' E 008°30'0 0.0
2017-Dec-07 10:56N 44°19' E 008°30'0 0.0
2017-Dec-07 10:29N 44°19' E 008°30'0 0.0
2017-Dec-07 09:59N 44°19' E 008°30'0 0.0
2017-Dec-07 09:29N 44°19' E 008°30'0 0.0
2017-Dec-07 08:59N 44°19' E 008°30'0 0.0
2017-Dec-07 08:26N 44°19' E 008°30'0 0.0
2017-Dec-07 07:59N 44°19' E 008°30'0 0.0
2017-Dec-07 07:29N 44°19' E 008°30'0 0.0
2017-Dec-07 06:59N 44°19' E 008°30'0 0.0
2017-Dec-07 06:29N 44°19' E 008°30'0 0.0
2017-Dec-07 05:59N 44°19' E 008°30'0 0.0
2017-Dec-07 05:26N 44°19' E 008°30'0 0.0
2017-Dec-07 04:56N 44°19' E 008°30'0 0.0
2017-Dec-07 04:29N 44°19' E 008°30'0 0.0
2017-Dec-07 03:59N 44°19' E 008°30'0 0.0
2017-Dec-07 03:29N 44°19' E 008°30'0 0.0
2017-Dec-07 02:59N 44°19' E 008°30'0 0.0
2017-Dec-07 02:26N 44°19' E 008°30'0 0.0
2017-Dec-07 01:59N 44°19' E 008°30'0 0.0
2017-Dec-07 01:26N 44°19' E 008°30'0 0.0
2017-Dec-07 00:59N 44°19' E 008°30'0 0.0
2017-Dec-07 00:26N 44°19' E 008°30'0 0.0
2017-Dec-06 23:59N 44°19' E 008°30'0 0.0
2017-Dec-06 23:26N 44°19' E 008°30'0 0.0
2017-Dec-06 22:56N 44°19' E 008°30'0 0.3
2017-Dec-06 22:26N 44°19' E 008°30'0 0.0
2017-Dec-06 21:56N 44°19' E 008°30'0 0.0
2017-Dec-06 21:26N 44°19' E 008°30'0 0.0
2017-Dec-06 20:59N 44°19' E 008°30'  

Dump ship's entire track history